Tropical Cyclones
[Index]
Main Index Home Page Stock Weather Photos Extreme Storms Discussion Storm News and Storm Chasing Reports Tropical Cyclones / Hurricanes / Typhoons Weather Data and Links Wild Fires / Bushfires Weather Observation Techniques Weather Picture Catalogue Tornado Pictures and Reports Stock Video Footage and DVDs for sale
Season 2007-2008 Tropical Cyclone CELINA Track Map
Season 2007-2008 Summaries (Operational Data): [AU] [SIO] [SPAC] [SH]
<<- Previous TC | 2007-2008 Season | Next TC ->>

click for intensity scale information  Lat/long Grid: Show Hide

 Date Labels: Show Hide

Operational Tropical Cyclone Data : JTWC Advisories

Name: CELINA
Number: 0806

12 Dec 2007 12:00 UTC to 21 Dec 2007 12:00 UTC

    date/time    lat    long     hPa   cat  kts
2007-12-12 12   13.3    70.6    1000         25          
2007-12-12 18   13.5    70.0    1000         25          
2007-12-13 00   13.7    69.7    1000         25          
2007-12-13 06   14.6    68.6    1000         25          
2007-12-13 12   13.7    69.8    1000         25          
2007-12-13 18   13.9    69.7    1000         25          
2007-12-14 00   14.0    69.6    1000         25          
2007-12-14 06   14.0    69.6     999         30          
2007-12-14 12   14.4    69.4     999         30          
2007-12-14 18   14.8    69.1     999         30          
2007-12-15 00   15.2    69.0     999         30          
2007-12-15 06   15.1    68.0     999         30          
2007-12-15 12   15.6    67.4     999         30          
2007-12-15 18   16.0    66.9     999         30          
2007-12-16 00   16.3    66.3     999         30          
2007-12-16 06   16.4    65.4     997         30          
2007-12-16 12   16.9    64.8     997         30          
2007-12-16 18   17.5    64.2     997         30          
2007-12-17 00   18.5    63.2     997         30          
2007-12-17 06   19.5    62.0     992    1    40          
2007-12-17 12   20.0    61.2     993    1    40          
2007-12-17 18   20.3    60.7     993    1    40          
2007-12-18 00   20.6    60.1     994    1    35          
2007-12-18 06   21.0    59.8     994    1    35          
2007-12-18 12   21.4    59.4     996         30          
2007-12-18 18   21.5    59.5     996         30          
2007-12-19 00   21.9    59.2     996         30          
2007-12-19 06   22.2    58.4     998         30          
2007-12-19 12   22.3    57.8     998         25          
2007-12-19 18   22.5    57.3     999         25          
2007-12-20 00   22.6    56.5     999         25          
2007-12-20 06   22.1    55.5     999         25          
2007-12-20 12   21.5    54.7     998         25          
2007-12-20 18   21.1    54.4     998         25          
2007-12-21 00   21.2    53.2     998         25          
2007-12-21 06   21.1    52.5    1000         25          
2007-12-21 12   20.8    52.0    1000         25          
Winds are 10-min average.

Tropical cyclone tracks developed by Michael Bath using operational warnings and advisories and Google Maps.


[Australian Severe Weather index] [Copyright Notice] [Email Contacts] [Search This Site] [Privacy Policy]
Document: tropical_cyclone_celina.htm Updated: 2 May 2017